Time;durP1;ratioP1;P1;durP2;ratioP2;P2;SDS_P1;SDS_P2;PMS_P1;PMS_P2;Temp;Humidity;BMP_temperature;BMP_pressure;BME280_temperature;BME280_humidity;BME280_pressure;Samples;Min_cycle;Max_cycle;Signal;HPM_P1;HPM_P2
2021/12/10 00:01:56;;;;;;;6.80;5.88;;;;;;;18.19;44.12;100158.94;5052603;28;20037;-84
2021/12/10 00:04:29;;;;;;;7.55;5.80;;;;;;;18.19;43.75;100153.56;5053498;28;20059;-85
2021/12/10 00:07:02;;;;;;;8.02;6.38;;;;;;;18.19;44.08;100147.34;5052244;28;20056;-85
2021/12/10 00:09:51;;;;;;;8.43;6.57;;;;;;;18.18;43.97;100146.50;5053505;28;20396;-85
2021/12/10 00:12:24;;;;;;;7.43;5.22;;;;;;;18.18;43.85;100146.50;5053622;28;20484;-85
2021/12/10 00:14:52;;;;;;;;;;;;;;;18.18;43.71;100151.84;5053183;28;20416;-85
2021/12/10 00:17:21;;;;;;;9.63;6.45;;;;;;;18.17;43.76;100147.50;5053176;28;19927;-85
2021/12/10 00:19:53;;;;;;;10.65;6.90;;;;;;;18.17;43.65;100150.19;5052875;28;20045;-84
2021/12/10 00:22:30;;;;;;;7.07;5.97;;;;;;;18.18;43.67;100141.16;5051250;28;20064;-85
2021/12/10 00:24:57;;;;;;;7.05;5.63;;;;;;;18.17;43.73;100150.19;5052997;28;20464;-84
2021/12/10 00:27:29;;;;;;;7.50;5.68;;;;;;;18.17;43.62;100149.34;5053175;28;20511;-84
2021/12/10 00:30:12;;;;;;;7.35;6.60;;;;;;;18.18;43.42;100146.50;5070687;28;20060;-84
2021/12/10 00:32:58;;;;;;;7.28;5.88;;;;;;;18.19;43.27;100142.88;5053338;28;20056;-84
2021/12/10 00:35:30;;;;;;;7.63;6.10;;;;;;;18.19;43.14;100142.00;5036603;28;20064;-85
2021/12/10 00:37:58;;;;;;;10.13;6.00;;;;;;;18.20;43.20;100141.03;5053400;28;20052;-87
2021/12/10 00:40:27;;;;;;;7.85;5.95;;;;;;;18.19;43.39;100148.22;5053225;28;20521;-88
2021/12/10 00:42:55;;;;;;;10.27;6.32;;;;;;;18.18;43.35;100141.16;5053585;28;20044;-87
2021/12/10 00:45:24;;;;;;;6.10;5.38;;;;;;;18.18;43.32;100138.47;5053451;28;20049;-87
2021/12/10 00:47:55;;;;;;;8.95;6.35;;;;;;;18.18;43.22;100129.59;5053507;28;20041;-87
2021/12/10 00:50:27;;;;;;;6.85;5.97;;;;;;;18.18;43.15;100126.91;5052500;28;20044;-87
2021/12/10 00:52:56;;;;;;;8.05;6.28;;;;;;;18.19;43.08;100125.91;5053154;28;20048;-87
2021/12/10 00:55:25;;;;;;;8.57;6.28;;;;;;;18.19;42.85;100125.91;5053015;28;20048;-88
2021/12/10 00:57:53;;;;;;;6.82;5.75;;;;;;;18.19;43.16;100133.94;5053719;28;20037;-88
2021/12/10 01:00:26;;;;;;;7.55;5.78;;;;;;;18.17;42.83;100133.25;5052585;28;20056;-87
2021/12/10 01:02:53;;;;;;;8.35;6.00;;;;;;;18.17;43.04;100118.03;5054072;28;20049;-87
2021/12/10 01:05:22;;;;;;;7.35;6.35;;;;;;;18.18;42.70;100111.69;5057182;28;20053;-87
2021/12/10 01:07:50;;;;;;;6.65;5.85;;;;;;;18.19;42.55;100109.84;5056783;28;20144;-87
2021/12/10 01:10:35;;;;;;;7.15;6.03;;;;;;;18.19;42.60;100102.69;5056996;28;20052;-87
2021/12/10 01:13:07;;;;;;;6.95;6.05;;;;;;;18.19;42.55;100110.72;5090016;28;20049;-87
2021/12/10 01:27:29;;;;;;;6.97;5.85;;;;;;;18.19;42.29;100100.00;5054558;28;20056;-86
2021/12/10 01:30:16;;;;;;;6.68;5.68;;;;;;;18.19;42.32;100104.47;5055060;28;20048;-86
2021/12/10 01:32:51;;;;;;;5.82;5.20;;;;;;;18.19;42.38;100104.47;5055286;28;20056;-87
2021/12/10 01:35:25;;;;;;;5.68;5.03;;;;;;;18.18;42.11;100100.97;5038452;28;20507;-87
2021/12/10 01:37:53;;;;;;;7.10;5.60;;;;;;;18.19;42.27;100100.00;5055626;28;20052;-89
2021/12/10 01:40:24;;;;;;;6.72;5.70;;;;;;;18.18;42.31;100092.91;5054767;28;20072;-89
2021/12/10 01:43:00;;;;;;;6.25;5.50;;;;;;;18.18;42.19;100092.09;5055413;28;20416;-89
2021/12/10 01:45:31;;;;;;;7.75;5.75;;;;;;;18.18;42.22;100076.84;5038035;28;20049;-89
2021/12/10 01:48:07;;;;;;;7.43;5.28;;;;;;;18.18;42.12;100087.56;5054908;28;20048;-89
2021/12/10 01:50:35;;;;;;;7.05;5.97;;;;;;;18.17;42.11;100080.53;5037939;28;20053;-89
2021/12/10 01:53:12;;;;;;;5.80;5.20;;;;;;;18.17;42.13;100077.84;5038957;28;20493;-89
2021/12/10 01:55:43;;;;;;;5.40;4.78;;;;;;;18.17;42.12;100079.69;5043401;28;20064;-89
2021/12/10 01:58:19;;;;;;;6.93;6.10;;;;;;;18.16;42.18;100076.16;5057907;28;20045;-89
2021/12/10 02:00:53;;;;;;;7.70;5.43;;;;;;;18.16;42.11;100076.16;5061775;28;20056;-89
2021/12/10 02:03:22;;;;;;;5.32;4.82;;;;;;;18.16;42.12;100078.00;5068716;28;20025;-89
2021/12/10 02:05:49;;;;;;;6.30;5.55;;;;;;;18.14;42.10;100067.41;5066004;28;20389;-89
2021/12/10 02:08:17;;;;;;;5.60;4.97;;;;;;;18.14;42.12;100072.75;5057437;28;20044;-89
2021/12/10 02:10:45;;;;;;;6.50;5.40;;;;;;;18.15;42.09;100068.25;5057119;28;20501;-89
2021/12/10 02:13:13;;;;;;;5.95;5.03;;;;;;;18.14;42.06;100075.44;5057086;28;20044;-89
2021/12/10 02:15:41;;;;;;;5.78;5.15;;;;;;;18.15;42.02;100077.16;5056078;28;20420;-89
2021/12/10 02:18:12;;;;;;;5.43;4.93;;;;;;;18.14;42.16;100069.25;5056320;28;20056;-89
2021/12/10 02:20:54;;;;;;;5.60;4.93;;;;;;;18.15;41.99;100073.59;5056455;28;20047;-89
2021/12/10 02:23:22;;;;;;;7.45;5.68;;;;;;;18.14;42.06;100063.88;5056067;28;20045;-89
2021/12/10 02:25:50;;;;;;;6.00;5.28;;;;;;;18.14;42.03;100072.75;5055366;28;20057;-89
2021/12/10 02:28:18;;;;;;;5.78;4.80;;;;;;;18.13;42.00;100065.72;5056429;28;20052;-89
2021/12/10 02:30:46;;;;;;;8.35;5.55;;;;;;;18.14;42.03;100053.16;5055868;28;20049;-88
2021/12/10 02:33:15;;;;;;;5.53;5.03;;;;;;;18.14;41.94;100053.16;5055350;28;20049;-89
2021/12/10 02:35:45;;;;;;;5.55;4.78;;;;;;;18.14;42.10;100053.16;5056202;28;20056;-87
2021/12/10 02:38:20;;;;;;;5.57;4.93;;;;;;;18.13;41.86;100043.44;5055040;28;20050;-88
2021/12/10 02:40:49;;;;;;;6.50;5.15;;;;;;;18.12;42.01;100042.63;5055621;28;20489;-88
2021/12/10 02:43:19;;;;;;;7.05;5.47;;;;;;;18.12;42.18;100039.09;5057076;28;20041;-88
2021/12/10 02:45:51;;;;;;;5.78;5.15;;;;;;;18.13;42.04;100046.13;5056703;28;20065;-88
2021/12/10 02:48:19;;;;;;;6.30;5.27;;;;;;;18.12;41.91;100044.44;5055922;28;20048;-89
2021/12/10 02:50:47;;;;;;;5.82;5.28;;;;;;;18.12;42.13;100041.78;5055040;28;20048;-89
2021/12/10 02:53:19;;;;;;;5.72;5.00;;;;;;;18.12;42.09;100044.44;5055705;28;20052;-89
2021/12/10 02:55:47;;;;;;;6.13;5.15;;;;;;;18.11;42.04;100032.03;5087794;28;20496;-89
2021/12/10 02:58:14;;;;;;;6.70;5.18;;;;;;;18.10;41.99;100023.16;5086854;28;20063;-89
2021/12/10 03:00:53;;;;;;;5.95;5.38;;;;;;;18.10;41.94;100030.34;5037709;28;20519;-87
2021/12/10 03:03:21;;;;;;;6.50;5.25;;;;;;;18.10;41.97;100036.53;5086982;28;20045;-87
2021/12/10 03:05:49;;;;;;;5.82;5.22;;;;;;;18.09;42.03;100034.84;5053708;28;20051;-88
2021/12/10 03:08:17;;;;;;;4.88;4.47;;;;;;;18.09;41.84;100032.19;5054495;28;20044;-88
2021/12/10 03:10:45;;;;;;;5.97;5.32;;;;;;;18.08;42.04;100027.81;5054746;28;20045;-88
2021/12/10 03:13:12;;;;;;;6.25;5.65;;;;;;;18.09;41.98;100017.94;5053602;28;20055;-88
2021/12/10 03:15:42;;;;;;;7.45;5.85;;;;;;;18.09;41.98;100024.13;5086657;28;20056;-87
2021/12/10 03:18:18;;;;;;;5.63;5.13;;;;;;;18.08;42.15;100010.91;5054658;28;20492;-88
2021/12/10 03:20:46;;;;;;;6.45;5.10;;;;;;;18.08;41.97;100002.88;5055119;28;20393;-87
2021/12/10 03:23:15;;;;;;;6.65;5.32;;;;;;;18.07;41.87;99998.47;5054917;28;20044;-86
2021/12/10 03:25:44;;;;;;;5.95;5.10;;;;;;;18.06;41.93;100005.66;5055273;28;20044;-86
2021/12/10 03:28:12;;;;;;;8.25;5.57;;;;;;;18.08;41.84;99997.50;5054107;28;20059;-86
2021/12/10 03:30:44;;;;;;;5.97;5.03;;;;;;;18.08;41.75;99992.16;5054587;28;20041;-89
2021/12/10 03:33:12;;;;;;;6.45;5.35;;;;;;;18.07;41.76;99985.09;5054246;28;20435;-85
2021/12/10 03:35:43;;;;;;;5.15;4.65;;;;;;;18.08;41.90;99986.78;5054295;28;20056;-85
2021/12/10 03:38:15;;;;;;;6.18;5.13;;;;;;;18.06;42.09;99973.53;5054554;28;20059;-85
2021/12/10 03:40:43;;;;;;;6.78;4.65;;;;;;;18.07;42.08;99977.91;5054260;28;20057;-86
2021/12/10 03:43:11;;;;;;;6.65;5.25;;;;;;;18.06;42.26;99970.00;5054377;28;20055;-85
2021/12/10 03:45:44;;;;;;;5.57;4.78;;;;;;;18.06;42.08;99975.38;5054223;28;20048;-86
2021/12/10 03:48:15;;;;;;;5.88;5.28;;;;;;;18.06;41.98;99978.03;5053005;28;20048;-87
2021/12/10 03:50:45;;;;;;;6.45;5.18;;;;;;;18.08;42.01;99986.78;5054155;28;20043;-86
2021/12/10 03:53:14;;;;;;;7.10;4.90;;;;;;;18.06;42.22;99994.97;5053831;28;20056;-87
2021/12/10 03:55:42;;;;;;;6.50;5.15;;;;;;;18.07;42.14;99994.00;5054339;28;20053;-88
2021/12/10 03:58:10;;;;;;;6.28;4.97;;;;;;;18.06;42.10;99981.56;5053784;28;20052;-87
2021/12/10 04:00:45;;;;;;;7.03;5.28;;;;;;;18.06;42.29;99978.03;5054309;28;20037;-86
2021/12/10 04:03:16;;;;;;;6.25;5.45;;;;;;;18.05;42.15;99961.13;5054209;28;20469;-86
2021/12/10 04:05:44;;;;;;;7.03;5.45;;;;;;;18.04;42.12;99952.25;5054295;28;20059;-86
2021/12/10 04:08:12;;;;;;;7.88;5.15;;;;;;;18.04;42.55;99951.41;5053984;28;20052;-87
2021/12/10 04:10:40;;;;;;;5.63;5.03;;;;;;;18.02;42.26;99954.22;5085230;28;20053;-87
2021/12/10 04:13:09;;;;;;;6.78;5.32;;;;;;;18.02;42.20;99948.88;5053910;28;20049;-87
2021/12/10 04:15:38;;;;;;;6.05;5.30;;;;;;;18.02;42.15;99950.69;5053780;28;20045;-87
2021/12/10 04:18:08;;;;;;;5.25;4.75;;;;;;;18.02;42.13;99942.66;5053424;28;20045;-87
2021/12/10 04:20:37;;;;;;;5.45;4.47;;;;;;;18.02;42.18;99940.00;5054216;28;20099;-87
2021/12/10 04:23:08;;;;;;;5.72;4.97;;;;;;;18.01;42.17;99931.13;5054457;28;20048;-87
2021/12/10 04:25:36;;;;;;;7.65;5.40;;;;;;;18.01;42.18;99936.47;5054442;28;20045;-88
2021/12/10 04:28:07;;;;;;;6.75;5.10;;;;;;;18.01;42.03;99936.47;5053466;28;20044;-88
2021/12/10 04:30:39;;;;;;;7.00;5.53;;;;;;;18.01;42.17;99931.13;5053866;28;20044;-88
2021/12/10 04:33:09;;;;;;;6.10;5.05;;;;;;;18.01;41.97;99933.78;5053761;28;20495;-87
2021/12/10 04:35:36;;;;;;;6.28;5.00;;;;;;;18.01;42.10;99930.28;5053265;28;20037;-87
2021/12/10 04:38:05;;;;;;;5.35;4.40;;;;;;;18.01;42.07;99941.00;5053007;28;20045;-87
2021/12/10 04:40:32;;;;;;;6.97;4.85;;;;;;;18.00;41.96;99939.31;5053110;28;20056;-86
2021/12/10 04:43:00;;;;;;;5.50;4.53;;;;;;;18.00;42.03;99945.50;5052310;28;20049;-87
2021/12/10 04:45:28;;;;;;;8.38;4.57;;;;;;;17.99;41.92;99933.13;5052318;28;20052;-86
2021/12/10 04:47:56;;;;;;;5.35;4.57;;;;;;;17.99;41.99;99935.78;5053140;28;20048;-87
2021/12/10 04:50:27;;;;;;;5.70;4.70;;;;;;;17.98;42.13;99938.59;5052967;28;20372;-87
2021/12/10 04:52:57;;;;;;;5.57;4.75;;;;;;;17.99;41.94;99942.97;5036577;28;20057;-87
2021/12/10 04:55:25;;;;;;;7.28;4.68;;;;;;;17.99;42.17;99937.63;5053529;28;20476;-87
2021/12/10 04:57:53;;;;;;;5.35;4.78;;;;;;;17.98;41.86;99936.75;5053115;28;20055;-87
2021/12/10 05:00:27;;;;;;;5.78;4.70;;;;;;;17.98;41.98;99933.25;5053233;28;20052;-87
2021/12/10 05:02:56;;;;;;;6.38;5.18;;;;;;;17.97;41.98;99943.09;5053192;28;20054;-87
2021/12/10 05:05:24;;;;;;;6.00;4.90;;;;;;;17.98;41.92;99941.28;5053629;28;20049;-86
2021/12/10 05:07:52;;;;;;;4.95;4.43;;;;;;;17.97;41.87;99950.31;5052754;28;20041;-85
2021/12/10 05:10:20;;;;;;;8.82;4.78;;;;;;;17.97;41.93;99959.19;5053613;28;20370;-85
2021/12/10 05:12:47;;;;;;;6.60;4.85;;;;;;;17.96;41.52;99954.81;5052780;28;20476;-86
2021/12/10 05:15:19;;;;;;;7.05;4.72;;;;;;;17.96;41.73;99957.50;5053119;28;20495;-86
2021/12/10 05:17:49;;;;;;;5.47;4.43;;;;;;;17.96;41.73;99959.34;5053192;28;20101;-85
2021/12/10 05:20:25;;;;;;;5.68;4.70;;;;;;;17.96;41.83;99970.88;5052618;28;20052;-85
2021/12/10 05:22:52;;;;;;;5.97;4.95;;;;;;;17.95;41.76;99966.53;5053403;28;20384;-85
2021/12/10 05:25:20;;;;;;;5.45;4.63;;;;;;;17.95;41.69;99974.56;5053058;28;20041;-85
2021/12/10 05:27:48;;;;;;;5.00;4.45;;;;;;;17.95;41.99;99973.72;5052902;28;20045;-86
2021/12/10 05:30:20;;;;;;;6.60;5.07;;;;;;;17.95;41.81;99982.59;5052911;28;20056;-86
2021/12/10 05:32:49;;;;;;;5.10;4.60;;;;;;;17.94;41.79;99977.34;5053127;28;20060;-85
2021/12/10 05:35:16;;;;;;;5.00;4.47;;;;;;;17.94;41.74;99980.03;5053047;28;20041;-88
2021/12/10 05:37:44;;;;;;;5.20;4.47;;;;;;;17.95;41.57;99979.06;5052149;28;20056;-87
2021/12/10 05:40:13;;;;;;;5.63;4.97;;;;;;;17.94;41.79;99972.00;5052719;28;20419;-87
2021/12/10 05:42:43;;;;;;;5.32;4.55;;;;;;;17.94;41.67;99985.41;5052702;28;20404;-86
2021/12/10 05:45:12;;;;;;;5.43;4.70;;;;;;;17.93;41.68;99989.06;5084875;28;20048;-87
2021/12/10 05:47:39;;;;;;;5.82;4.80;;;;;;;17.94;41.68;99998.78;5052637;28;20052;-87
2021/12/10 05:50:09;;;;;;;5.30;4.68;;;;;;;17.93;41.66;99994.41;5051840;28;20108;-87
2021/12/10 05:52:37;;;;;;;5.88;4.63;;;;;;;17.93;41.51;100005.13;5054970;28;20424;-87
2021/12/10 05:55:05;;;;;;;6.03;4.93;;;;;;;17.93;41.53;99999.78;5056091;28;20045;-87
2021/12/10 05:57:32;;;;;;;4.43;4.00;;;;;;;17.91;41.53;100002.63;5055806;28;20045;-86
2021/12/10 06:00:00;;;;;;;4.88;4.38;;;;;;;17.92;41.63;100009.66;5056134;28;20052;-86
2021/12/10 06:02:36;;;;;;;5.25;4.72;;;;;;;17.92;41.28;100001.63;5062656;28;20049;-86
2021/12/10 06:05:04;;;;;;;6.70;4.80;;;;;;;17.92;41.19;99995.41;5056770;28;20060;-88
2021/12/10 06:07:38;;;;;;;5.88;5.10;;;;;;;17.91;41.40;99994.56;5055568;28;20049;-89
2021/12/10 06:10:09;;;;;;;5.35;4.35;;;;;;;17.92;41.41;99984.72;5056110;28;20045;-88
2021/12/10 06:12:41;;;;;;;6.28;5.65;;;;;;;17.92;41.38;99984.72;5054905;28;20489;-88
2021/12/10 06:15:10;;;;;;;7.10;5.22;;;;;;;17.91;41.40;99977.66;5056610;28;20412;-88
2021/12/10 06:17:37;;;;;;;5.78;4.80;;;;;;;17.91;41.29;99978.50;5057473;28;20056;-87
2021/12/10 06:20:07;;;;;;;6.15;4.93;;;;;;;17.91;41.25;99983.03;5056818;28;20044;-87
2021/12/10 06:22:35;;;;;;;5.57;4.82;;;;;;;17.91;41.39;99977.66;5057063;28;20041;-85
2021/12/10 06:25:05;;;;;;;6.38;4.45;;;;;;;17.91;41.75;99977.66;5056545;28;20048;-83
2021/12/10 06:27:33;;;;;;;5.72;4.68;;;;;;;17.90;41.46;99974.13;5059557;28;20045;-85
2021/12/10 06:30:02;;;;;;;5.40;4.43;;;;;;;17.90;41.38;99975.97;5055937;28;20037;-85
2021/12/10 06:32:29;;;;;;;5.20;4.70;;;;;;;17.90;41.40;99959.88;5057384;28;20048;-85
2021/12/10 06:34:57;;;;;;;5.45;4.95;;;;;;;17.89;41.41;99951.00;5055360;28;20158;-86
2021/12/10 06:37:25;;;;;;;6.97;4.97;;;;;;;17.90;41.51;99949.19;5054143;28;20064;-85
2021/12/10 06:39:52;;;;;;;5.45;4.30;;;;;;;17.89;41.35;99937.63;5054041;28;20493;-87
2021/12/10 06:42:20;;;;;;;5.40;4.55;;;;;;;17.88;41.47;99935.94;5055269;28;20057;-86
2021/12/10 06:45:05;;;;;;;5.25;4.70;;;;;;;17.90;41.35;99938.47;5055691;28;20473;-86
2021/12/10 06:47:33;;;;;;;5.07;4.20;;;;;;;17.89;41.46;99936.78;5054128;28;20057;-87
2021/12/10 06:50:01;;;;;;;6.15;4.60;;;;;;;17.90;41.60;99933.13;5055367;28;20507;-87
2021/12/10 06:52:29;;;;;;;6.43;4.88;;;;;;;17.89;41.79;99931.44;5056177;28;20420;-87
2021/12/10 06:54:56;;;;;;;5.07;4.57;;;;;;;17.87;41.41;99934.28;5055845;28;20052;-88
2021/12/10 06:57:24;;;;;;;5.43;4.32;;;;;;;17.89;41.61;99926.91;5056284;28;20045;-88
2021/12/10 06:59:53;;;;;;;5.50;4.70;;;;;;;17.88;41.52;99921.72;5056320;28;20045;-88
2021/12/10 07:02:20;;;;;;;6.10;4.40;;;;;;;17.88;41.62;99919.03;5037572;28;20045;-87
2021/12/10 07:04:48;;;;;;;5.53;5.03;;;;;;;17.87;41.66;99914.69;5055164;28;20048;-88
2021/12/10 07:07:15;;;;;;;6.20;4.90;;;;;;;17.87;41.74;99906.66;5055204;28;20044;-87
2021/12/10 07:09:43;;;;;;;5.90;4.75;;;;;;;17.87;41.63;99903.97;5053916;28;20049;-87
2021/12/10 07:12:12;;;;;;;5.15;4.63;;;;;;;17.86;41.96;99897.75;5055347;28;20060;-87
2021/12/10 07:14:40;;;;;;;5.82;5.10;;;;;;;17.86;41.60;99894.22;5056089;28;20056;-87
2021/12/10 07:17:07;;;;;;;5.18;4.68;;;;;;;17.86;41.65;99896.91;5055888;28;20045;-87
2021/12/10 07:19:36;;;;;;;5.22;4.65;;;;;;;17.86;41.46;99894.22;5055058;28;20049;-88
2021/12/10 07:22:03;;;;;;;5.35;4.80;;;;;;;17.84;41.35;99894.38;5054722;28;20049;-87
2021/12/10 07:24:31;;;;;;;5.45;4.90;;;;;;;17.85;41.55;99898.75;5054406;28;20049;-87
2021/12/10 07:26:59;;;;;;;6.25;4.75;;;;;;;17.86;41.67;99894.22;5053286;28;20052;-86
2021/12/10 07:29:26;;;;;;;5.78;5.18;;;;;;;17.85;41.58;99887.19;5054592;28;20041;-86
2021/12/10 07:31:54;;;;;;;5.95;4.70;;;;;;;17.84;41.44;99886.34;5053993;28;20049;-87
2021/12/10 07:34:21;;;;;;;7.22;5.30;;;;;;;17.84;41.77;99897.06;5053838;28;20496;-87
2021/12/10 07:36:49;;;;;;;7.70;4.60;;;;;;;17.84;41.57;99897.06;5053957;28;20048;-84
2021/12/10 07:39:16;;;;;;;8.25;5.90;;;;;;;17.84;41.50;99886.34;5054040;28;20052;-84
2021/12/10 07:41:44;;;;;;;6.00;5.07;;;;;;;17.84;41.67;99882.84;5052721;28;20041;-84
2021/12/10 07:44:12;;;;;;;6.70;4.78;;;;;;;17.84;41.81;99877.47;5052681;28;20056;-84
2021/12/10 07:46:40;;;;;;;6.32;5.68;;;;;;;17.83;41.89;99873.97;5053885;28;20037;-84
2021/12/10 07:49:15;;;;;;;6.65;5.05;;;;;;;17.83;41.86;99868.59;5053794;28;20056;-82
2021/12/10 07:51:49;;;;;;;6.68;5.45;;;;;;;17.84;41.62;99877.47;5054505;28;20048;-83
2021/12/10 07:54:17;;;;;;;7.40;5.25;;;;;;;17.84;41.46;99861.41;5054298;28;20072;-83
2021/12/10 07:56:49;;;;;;;6.03;5.40;;;;;;;17.83;41.48;99855.22;5054564;28;20361;-84
2021/12/10 07:59:17;;;;;;;5.18;4.47;;;;;;;17.84;41.71;99848.88;5053706;28;20423;-84
2021/12/10 08:01:45;;;;;;;5.78;5.18;;;;;;;17.84;41.66;99854.22;5052438;28;20056;-84
2021/12/10 08:04:13;;;;;;;7.57;5.40;;;;;;;17.85;41.43;99852.38;5053637;28;20048;-84
2021/12/10 08:06:40;;;;;;;6.18;5.40;;;;;;;17.85;41.40;99853.22;5052923;28;20500;-83
2021/12/10 08:09:09;;;;;;;8.98;5.15;;;;;;;17.86;41.28;99851.38;5053572;28;20052;-83
2021/12/10 08:11:38;;;;;;;6.63;5.72;;;;;;;17.85;41.33;99841.69;5052112;28;20492;-84
2021/12/10 08:14:08;;;;;;;8.07;6.88;;;;;;;17.81;40.76;99826.91;5051267;28;20044;-82
2021/12/10 08:16:36;;;;;;;7.88;6.25;;;;;;;17.77;40.86;99835.22;5053468;28;20041;-83
2021/12/10 08:19:04;;;;;;;9.38;6.90;;;;;;;17.74;40.33;99835.53;5052061;28;20048;-83
2021/12/10 08:21:32;;;;;;;9.05;7.82;;;;;;;17.72;39.68;99829.44;5053141;28;20393;-83
2021/12/10 08:23:59;;;;;;;8.65;7.75;;;;;;;17.69;39.54;99834.22;5054056;28;20049;-83
2021/12/10 08:26:27;;;;;;;10.77;8.65;;;;;;;17.67;39.19;99825.50;5053181;28;20041;-82
2021/12/10 08:28:55;;;;;;;8.43;7.63;;;;;;;17.65;39.24;99822.13;5053633;28;20366;-83
2021/12/10 08:31:23;;;;;;;10.68;9.57;;;;;;;17.63;38.62;99819.59;5052920;28;20051;-82
2021/12/10 08:33:50;;;;;;;14.10;9.80;;;;;;;17.61;37.89;99818.88;5053086;28;20151;-82
2021/12/10 08:36:20;;;;;;;12.77;10.88;;;;;;;17.60;36.89;99817.22;5053017;28;20049;-82
2021/12/10 08:38:49;;;;;;;11.75;10.60;;;;;;;17.57;36.57;99813.97;5054002;28;20045;-82
2021/12/10 08:41:31;;;;;;;11.70;10.50;;;;;;;17.54;36.76;99815.09;5052727;28;20061;-82
2021/12/10 08:43:59;;;;;;;12.18;10.60;;;;;;;17.51;36.35;99813.56;5053262;28;20045;-82
2021/12/10 08:46:29;;;;;;;11.73;10.57;;;;;;;17.49;36.35;99820.03;5053190;28;20048;-82
2021/12/10 08:48:59;;;;;;;13.55;11.75;;;;;;;17.46;36.42;99813.16;5053328;28;20052;-82
2021/12/10 08:51:30;;;;;;;12.77;11.48;;;;;;;17.43;36.14;99813.44;5052909;28;20045;-82
2021/12/10 08:54:00;;;;;;;13.05;11.80;;;;;;;17.41;36.17;99815.41;5052093;28;20049;-82
2021/12/10 08:56:28;;;;;;;17.88;16.08;;;;;;;16.60;34.97;99814.84;5053547;28;20056;-84
2021/12/10 08:58:57;;;;;;;18.90;16.92;;;;;;;15.52;36.96;99803.94;5053560;28;20383;-84
2021/12/10 09:01:29;;;;;;;17.83;16.02;;;;;;;15.11;38.49;99818.09;5053264;28;20064;-91
2021/12/10 09:04:08;;;;;;;14.93;13.27;;;;;;;15.39;39.64;99809.44;5053907;28;20049;-90
2021/12/10 09:06:43;;;;;;;11.07;9.63;;;;;;;15.67;41.71;99805.28;5032662;28;20049;-92
2021/12/10 09:09:13;;;;;;;11.18;9.20;;;;;;;15.95;41.78;99801.06;5049816;28;20064;-92
2021/12/10 09:11:44;;;;;;;10.48;8.82;;;;;;;16.15;41.45;99799.28;5034857;28;20042;-92
2021/12/10 09:14:26;;;;;;;10.25;9.15;;;;;;;16.36;41.09;99793.84;5034067;28;20053;-93
2021/12/10 09:16:56;;;;;;;10.57;9.48;;;;;;;16.50;40.68;99792.63;5033666;28;20054;-93
2021/12/10 09:19:24;;;;;;;9.77;8.77;;;;;;;16.62;40.72;99780.00;5032752;28;20060;-92
2021/12/10 09:21:52;;;;;;;10.10;8.80;;;;;;;16.70;40.32;99778.31;5032027;28;20050;-92
2021/12/10 09:24:21;;;;;;;8.85;7.75;;;;;;;16.80;40.51;99783.66;5016821;28;20061;-92
2021/12/10 09:26:55;;;;;;;7.20;6.50;;;;;;;16.87;40.33;99790.16;5036385;28;20045;-92
2021/12/10 09:29:25;;;;;;;8.52;7.63;;;;;;;16.92;40.47;99784.38;5020085;28;20049;-92
2021/12/10 09:31:53;;;;;;;8.07;7.28;;;;;;;16.97;40.24;99787.47;5036210;28;20042;-92
2021/12/10 09:34:21;;;;;;;8.32;7.53;;;;;;;17.01;40.28;99783.50;5037295;28;20066;-92
2021/12/10 09:36:51;;;;;;;7.72;6.70;;;;;;;17.06;40.09;99778.59;5036524;28;20053;-91
2021/12/10 09:39:20;;;;;;;9.13;6.93;;;;;;;17.08;40.33;99771.28;5038425;28;20056;-92
2021/12/10 09:41:48;;;;;;;7.32;6.63;;;;;;;17.11;40.22;99756.78;5020346;28;20072;-92
2021/12/10 09:44:17;;;;;;;7.78;6.78;;;;;;;17.13;40.13;99744.09;5036758;28;20060;-92
2021/12/10 09:46:47;;;;;;;6.45;5.85;;;;;;;17.16;40.14;99747.31;5021328;28;20050;-93
2021/12/10 09:49:15;;;;;;;7.25;6.47;;;;;;;17.17;40.08;99740.97;5037888;28;20140;-96
2021/12/10 09:51:49;;;;;;;8.95;7.38;;;;;;;17.19;40.02;99730.16;5021296;28;20054;-95
2021/12/10 09:54:20;;;;;;;7.47;6.63;;;;;;;17.21;40.31;99725.50;5036492;28;20049;-94
2021/12/10 09:56:54;;;;;;;7.30;6.60;;;;;;;17.21;40.36;99712.97;5019868;28;20060;-93
2021/12/10 09:59:22;;;;;;;8.45;6.97;;;;;;;17.22;40.29;99701.31;5038015;28;20057;-95
2021/12/10 10:01:52;;;;;;;7.75;6.95;;;;;;;17.23;40.40;99694.94;5036326;28;20056;-94
2021/12/10 10:04:25;;;;;;;7.05;6.07;;;;;;;17.24;40.54;99685.09;5053496;28;20053;-94
2021/12/10 10:06:56;;;;;;;7.63;6.93;;;;;;;17.26;40.30;99673.28;5037692;28;20056;-94
2021/12/10 10:09:27;;;;;;;7.28;6.07;;;;;;;17.27;40.35;99661.56;5021691;28;20388;-93
2021/12/10 10:12:03;;;;;;;7.57;6.70;;;;;;;17.29;40.29;99662.25;5054257;28;20061;-94
2021/12/10 10:14:33;;;;;;;7.22;6.50;;;;;;;17.28;40.47;99659.75;5069437;28;20057;-95
2021/12/10 10:17:01;;;;;;;7.88;7.07;;;;;;;17.28;40.26;99665.94;5035724;28;20413;-93
2021/12/10 10:19:29;;;;;;;7.85;7.05;;;;;;;17.30;40.40;99688.03;5020105;28;20057;-95
2021/12/10 10:21:58;;;;;;;8.02;6.15;;;;;;;17.29;40.35;99691.69;5037214;28;20057;-93
2021/12/10 10:24:30;;;;;;;6.93;6.15;;;;;;;17.31;40.40;99691.56;5037951;28;20049;-93
2021/12/10 10:27:07;;;;;;;7.10;5.95;;;;;;;17.31;40.29;99686.19;5036986;28;20058;-93
2021/12/10 10:29:39;;;;;;;7.65;6.85;;;;;;;17.32;40.29;99687.03;5036624;28;20065;-93
2021/12/10 10:32:13;;;;;;;7.32;6.63;;;;;;;17.33;40.43;99694.06;5036212;28;20061;-94
2021/12/10 10:34:47;;;;;;;8.40;7.10;;;;;;;17.33;40.42;99683.38;5021371;28;20064;-95
2021/12/10 10:37:16;;;;;;;8.15;6.82;;;;;;;17.34;40.05;99679.69;5036990;28;20060;-94
2021/12/10 10:39:45;;;;;;;8.13;7.32;;;;;;;17.33;40.47;99676.19;5038811;28;20539;-94
2021/12/10 10:42:17;;;;;;;7.55;6.85;;;;;;;17.34;40.66;99680.56;5036697;28;20057;-94
2021/12/10 10:44:58;;;;;;;7.55;6.55;;;;;;;17.34;40.44;99680.56;5036679;28;20049;-93
2021/12/10 10:47:26;;;;;;;7.20;6.50;;;;;;;17.33;40.38;99670.84;5036336;28;20053;-93
2021/12/10 10:50:19;;;;;;;7.63;6.82;;;;;;;17.34;40.41;99661.84;5034873;28;20059;-94
2021/12/10 10:52:56;;;;;;;7.82;6.85;;;;;;;17.35;40.41;99665.34;5060617;28;20060;-92
2021/12/10 10:55:34;;;;;;;9.73;7.50;;;;;;;17.35;40.45;99657.31;5034415;28;20054;-80
2021/12/10 10:58:10;;;;;;;7.82;6.43;;;;;;;17.36;40.50;99653.66;5034833;28;20049;-85
2021/12/10 11:01:04;;;;;;;7.68;6.90;;;;;;;17.35;40.34;99658.16;5035227;28;20053;-82
2021/12/10 11:03:59;;;;;;;8.02;7.20;;;;;;;17.36;40.43;99659.84;5033150;28;20041;-83
2021/12/10 11:06:39;;;;;;;7.72;7.03;;;;;;;17.36;40.55;99667.03;5034341;28;20065;-82
2021/12/10 11:09:15;;;;;;;8.10;7.30;;;;;;;17.35;40.57;99660.84;5035482;28;20052;-82
2021/12/10 11:12:04;;;;;;;9.20;8.05;;;;;;;17.35;40.48;99666.19;5035644;28;20476;-83
2021/12/10 11:14:42;;;;;;;7.85;6.93;;;;;;;17.36;40.62;99672.38;5034927;28;20152;-82
2021/12/10 11:17:38;;;;;;;8.02;7.22;;;;;;;17.35;40.57;99668.88;5035746;28;20409;-83
2021/12/10 11:20:14;;;;;;;9.45;7.80;;;;;;;17.34;40.48;99659.16;5035909;28;20061;-82
2021/12/10 11:23:07;;;;;;;8.18;7.38;;;;;;;17.36;40.62;99656.34;5036374;28;20053;-82
2021/12/10 11:25:39;;;;;;;7.85;7.10;;;;;;;17.35;40.62;99646.63;5035717;28;20408;-83
2021/12/10 11:28:14;;;;;;;8.43;7.00;;;;;;;17.35;40.47;99643.94;5033474;28;20053;-83
2021/12/10 11:30:46;;;;;;;8.55;7.75;;;;;;;17.34;40.62;99635.09;5035030;28;20053;-83
2021/12/10 11:33:21;;;;;;;9.60;7.22;;;;;;;17.33;40.61;99633.38;5035292;28;20037;-82
2021/12/10 11:36:05;;;;;;;8.70;7.80;;;;;;;17.34;40.54;99627.06;5034324;28;20049;-83
2021/12/10 11:38:33;;;;;;;8.85;7.95;;;;;;;17.33;40.57;99620.00;5035856;28;20053;-83
2021/12/10 11:41:04;;;;;;;8.40;7.32;;;;;;;17.34;40.60;99623.53;5034149;28;20401;-82
2021/12/10 11:49:04;;;;;;;8.57;7.68;;;;;;;17.35;40.41;99627.91;5049238;28;20432;-83
2021/12/10 11:51:34;;;;;;;9.25;8.30;;;;;;;17.35;40.47;99623.38;5035100;28;20052;-83
2021/12/10 11:54:14;;;;;;;8.77;7.88;;;;;;;17.35;40.39;99614.53;5033226;28;20049;-83
2021/12/10 11:56:46;;;;;;;8.93;8.02;;;;;;;17.36;40.60;99605.50;5035219;28;20079;-83
2021/12/10 11:59:18;;;;;;;8.52;7.70;;;;;;;17.36;40.54;99600.16;5034465;28;20049;-83
2021/12/10 12:02:01;;;;;;;8.73;7.93;;;;;;;17.36;40.49;99589.44;5033621;28;20398;-83
2021/12/10 12:04:28;;;;;;;8.88;8.07;;;;;;;17.36;40.40;99581.44;5035341;28;20052;-83